Time;durP1;ratioP1;P1;durP2;ratioP2;P2;SDS_P1;SDS_P2;PMS_P1;PMS_P2;Temp;Humidity;BMP_temperature;BMP_pressure;BME280_temperature;BME280_humidity;BME280_pressure;Samples;Min_cycle;Max_cycle;Signal;HPM_P1;HPM_P2
2022/02/16 00:00:05;;;;;;;3.43;2.53;;;23.90;1.80;;;;;;5013920;28;20464;-54
2022/02/16 00:02:30;;;;;;;2.40;2.20;;;23.80;1.70;;;;;;5014695;28;20434;-54
2022/02/16 00:04:56;;;;;;;3.43;2.37;;;23.80;1.50;;;;;;5014785;28;20433;-54
2022/02/16 00:07:22;;;;;;;4.97;2.37;;;23.90;1.50;;;;;;5013962;28;20182;-54
2022/02/16 00:09:47;;;;;;;4.13;2.27;;;23.90;1.70;;;;;;5014496;28;20233;-54
2022/02/16 00:12:13;;;;;;;3.40;2.23;;;23.80;1.50;;;;;;5014468;28;20233;-53
2022/02/16 00:14:39;;;;;;;3.17;2.03;;;23.80;1.60;;;;;;4996536;28;20203;-54
2022/02/16 00:17:04;;;;;;;4.33;2.30;;;23.80;1.50;;;;;;5012860;28;20221;-54
2022/02/16 00:19:30;;;;;;;3.57;2.20;;;23.80;1.70;;;;;;5000317;28;20669;-54
2022/02/16 00:21:56;;;;;;;4.87;2.40;;;23.80;1.60;;;;;;5017154;28;20718;-54
2022/02/16 00:24:21;;;;;;;3.70;2.20;;;23.80;1.60;;;;;;5017914;28;20179;-54
2022/02/16 00:26:47;;;;;;;4.93;2.53;;;23.80;1.60;;;;;;5017948;28;20179;-54
2022/02/16 00:29:12;;;;;;;2.97;1.87;;;23.80;1.50;;;;;;5018072;28;20175;-54
2022/02/16 00:31:40;;;;;;;2.37;1.70;;;23.70;1.50;;;;;;4999906;28;20233;-54
2022/02/16 00:34:07;;;;;;;2.83;1.97;;;23.80;1.60;;;;;;5017541;28;20230;-54
2022/02/16 00:36:33;;;;;;;2.77;2.10;;;23.80;1.40;;;;;;5017636;28;20465;-54
2022/02/16 00:38:59;;;;;;;3.10;2.10;;;23.80;1.60;;;;;;5017524;28;20417;-54
2022/02/16 00:41:24;;;;;;;2.93;2.20;;;23.80;1.50;;;;;;5016704;28;20426;-54
2022/02/16 00:43:50;;;;;;;2.37;1.73;;;23.80;1.40;;;;;;5018207;28;20189;-54
2022/02/16 00:46:16;;;;;;;4.13;2.10;;;23.80;2.00;;;;;;5000031;28;20203;-54
2022/02/16 00:48:42;;;;;;;3.30;1.70;;;23.70;1.30;;;;;;5017519;28;20255;-54
2022/02/16 00:51:07;;;;;;;2.80;1.83;;;23.70;1.30;;;;;;5016591;28;20410;-54
2022/02/16 00:53:33;;;;;;;2.50;1.73;;;23.70;1.50;;;;;;5017361;28;20179;-55
2022/02/16 00:56:05;;;;;;;3.10;2.33;;;23.80;1.30;;;;;;5017313;28;20182;-54
2022/02/16 00:58:30;;;;;;;4.10;1.83;;;23.80;1.20;;;;;;5013531;28;20844;-54
2022/02/16 01:00:56;;;;;;;2.47;1.90;;;23.70;1.40;;;;;;5017274;28;20418;-54
2022/02/16 01:03:22;;;;;;;3.17;2.20;;;23.70;1.30;;;;;;5017261;28;20191;-54
2022/02/16 01:05:48;;;;;;;2.63;2.10;;;23.70;1.40;;;;;;5017130;28;20175;-54
2022/02/16 01:08:14;;;;;;;2.50;1.73;;;23.80;1.00;;;;;;5017210;28;20202;-54
2022/02/16 01:10:43;;;;;;;2.70;2.10;;;23.70;1.20;;;;;;5017183;28;20422;-54
2022/02/16 01:13:09;;;;;;;2.57;1.90;;;23.70;1.20;;;;;;5017192;28;20418;-54
2022/02/16 01:15:35;;;;;;;3.20;1.97;;;23.70;1.20;;;;;;5017165;28;21002;-54
2022/02/16 01:18:01;;;;;;;2.47;1.80;;;23.70;1.90;;;;;;4999704;28;20438;-54
2022/02/16 01:20:27;;;;;;;4.60;1.93;;;23.70;1.20;;;;;;4999085;28;20166;-54
2022/02/16 01:22:53;;;;;;;2.27;1.70;;;23.70;1.40;;;;;;5017016;28;20422;-54
2022/02/16 01:25:19;;;;;;;3.07;1.77;;;23.70;1.30;;;;;;4998859;28;20449;-54
2022/02/16 01:27:45;;;;;;;2.70;2.07;;;23.70;1.00;;;;;;5016900;28;20195;-54
2022/02/16 01:30:11;;;;;;;1.87;1.60;;;23.70;1.10;;;;;;5016122;28;20179;-53
2022/02/16 01:32:37;;;;;;;4.50;1.90;;;23.70;1.10;;;;;;5016711;28;20422;-53
2022/02/16 01:35:04;;;;;;;3.60;1.60;;;23.70;1.20;;;;;;5016166;28;20449;-54
2022/02/16 01:37:30;;;;;;;2.57;2.00;;;23.70;1.20;;;;;;4998566;28;20520;-54
2022/02/16 01:39:57;;;;;;;2.10;1.77;;;23.70;1.10;;;;;;5014852;28;20513;-54
2022/02/16 01:42:23;;;;;;;3.40;1.70;;;23.70;1.00;;;;;;5016493;28;20430;-54
2022/02/16 01:44:49;;;;;;;5.23;1.97;;;23.70;1.20;;;;;;5015661;28;20442;-54
2022/02/16 01:47:15;;;;;;;4.20;1.90;;;23.70;1.00;;;;;;5016546;28;20491;-54
2022/02/16 01:49:42;;;;;;;3.97;1.97;;;23.60;1.20;;;;;;5016886;28;20939;-54
2022/02/16 01:52:10;;;;;;;2.33;1.67;;;23.70;1.20;;;;;;5016603;28;20241;-54
2022/02/16 01:54:36;;;;;;;2.73;1.80;;;23.70;1.20;;;;;;5016332;28;20458;-54
2022/02/16 01:57:05;;;;;;;3.00;1.80;;;23.60;1.30;;;;;;5016796;28;20461;-54
2022/02/16 01:59:31;;;;;;;4.67;1.97;;;23.60;1.10;;;;;;5016776;28;20437;-54
2022/02/16 02:01:57;;;;;;;2.47;1.70;;;23.60;1.00;;;;;;4998038;28;20449;-54
2022/02/16 02:04:23;;;;;;;2.33;1.80;;;23.60;1.20;;;;;;5016577;28;20533;-54
2022/02/16 02:06:48;;;;;;;2.70;1.60;;;23.70;1.00;;;;;;5016108;28;20446;-53
2022/02/16 02:09:15;;;;;;;2.13;1.50;;;23.60;1.10;;;;;;5016206;28;20742;-54
2022/02/16 02:11:42;;;;;;;2.70;1.80;;;23.60;1.00;;;;;;5015279;28;20183;-54
2022/02/16 02:14:10;;;;;;;2.33;1.70;;;23.60;1.30;;;;;;5015784;28;20449;-54
2022/02/16 02:16:40;;;;;;;2.20;1.90;;;23.60;1.00;;;;;;5016251;28;20422;-54
2022/02/16 02:19:07;;;;;;;6.40;1.77;;;23.60;1.00;;;;;;5016075;28;20438;-54
2022/02/16 02:21:34;;;;;;;1.80;1.57;;;23.60;1.00;;;;;;5015146;28;20881;-54
2022/02/16 02:24:00;;;;;;;2.73;2.00;;;23.60;1.00;;;;;;5015664;28;20433;-54
2022/02/16 02:26:26;;;;;;;3.43;1.87;;;23.60;1.00;;;;;;5015016;28;20421;-54
2022/02/16 02:28:52;;;;;;;3.60;1.93;;;23.50;1.00;;;;;;5016179;28;20191;-53
2022/02/16 02:31:33;;;;;;;1.60;1.50;;;23.60;1.00;;;;;;5015473;28;20416;-54
2022/02/16 02:33:59;;;;;;;2.40;1.63;;;23.60;1.00;;;;;;5014689;28;20224;-54
2022/02/16 02:36:25;;;;;;;3.90;1.77;;;23.60;1.00;;;;;;5014546;28;20917;-54
2022/02/16 02:38:51;;;;;;;1.60;1.37;;;23.60;1.00;;;;;;5015663;28;20425;-54
2022/02/16 02:41:17;;;;;;;4.70;2.10;;;23.60;1.00;;;;;;5014389;28;20175;-54
2022/02/16 02:43:45;;;;;;;2.37;1.73;;;23.70;1.00;;;;;;5015754;28;20468;-54
2022/02/16 02:46:12;;;;;;;2.60;1.70;;;23.70;1.00;;;;;;5015687;28;20948;-54
2022/02/16 02:48:37;;;;;;;3.50;1.83;;;23.50;1.10;;;;;;5016075;28;20899;-53
2022/02/16 02:51:03;;;;;;;2.57;1.90;;;23.60;1.00;;;;;;5013407;28;20413;-54
2022/02/16 02:53:29;;;;;;;2.90;1.73;;;23.60;1.00;;;;;;5015131;28;20225;-53
2022/02/16 02:55:55;;;;;;;2.27;1.60;;;23.60;1.00;;;;;;5015860;28;20195;-54
2022/02/16 02:58:21;;;;;;;3.17;1.80;;;23.50;1.10;;;;;;4998120;28;20185;-54
2022/02/16 03:00:46;;;;;;;2.37;1.53;;;23.60;1.20;;;;;;5012630;28;20251;-54
2022/02/16 03:03:12;;;;;;;2.43;1.90;;;23.60;1.00;;;;;;5014157;28;20518;-54
2022/02/16 03:05:38;;;;;;;2.00;1.70;;;23.50;1.10;;;;;;5014536;28;20229;-54
2022/02/16 03:08:04;;;;;;;4.10;2.03;;;23.60;1.00;;;;;;5015053;28;20175;-53
2022/02/16 03:10:30;;;;;;;3.50;1.80;;;23.60;1.10;;;;;;5012381;28;20189;-54
2022/02/16 03:12:56;;;;;;;2.50;1.97;;;23.60;1.00;;;;;;5015220;28;20433;-54
2022/02/16 03:15:21;;;;;;;3.03;1.70;;;23.60;1.20;;;;;;5013735;28;20461;-54
2022/02/16 03:17:47;;;;;;;2.37;1.43;;;23.60;1.00;;;;;;5014593;28;20202;-53
2022/02/16 03:20:13;;;;;;;1.83;1.60;;;23.60;1.10;;;;;;5014238;28;20213;-54
2022/02/16 03:22:39;;;;;;;2.83;2.03;;;23.60;1.30;;;;;;5015422;28;20182;-54
2022/02/16 03:25:10;;;;;;;2.70;1.67;;;23.60;1.10;;;;;;5015466;28;20414;-54
2022/02/16 03:27:36;;;;;;;2.27;1.67;;;23.60;1.10;;;;;;5015932;28;20422;-54
2022/02/16 03:30:08;;;;;;;2.90;1.60;;;23.40;1.00;;;;;;5014496;28;20804;-54
2022/02/16 03:32:35;;;;;;;2.70;1.60;;;23.60;1.20;;;;;;4997617;28;20414;-54
2022/02/16 03:35:02;;;;;;;2.97;1.90;;;23.60;1.00;;;;;;5014567;28;20883;-54
2022/02/16 03:37:28;;;;;;;2.30;1.60;;;23.60;1.50;;;;;;5015174;28;20434;-54
2022/02/16 03:39:53;;;;;;;1.87;1.50;;;23.50;1.10;;;;;;5014226;28;20414;-54
2022/02/16 03:42:20;;;;;;;3.53;1.73;;;23.60;1.00;;;;;;5015004;28;20250;-54
2022/02/16 03:44:45;;;;;;;3.33;1.90;;;23.50;1.10;;;;;;4996479;28;20198;-54
2022/02/16 03:47:11;;;;;;;2.30;1.43;;;23.50;1.20;;;;;;5014349;28;20776;-54
2022/02/16 03:49:37;;;;;;;1.70;1.47;;;23.60;1.10;;;;;;5014801;28;20183;-54
2022/02/16 03:52:03;;;;;;;2.43;1.70;;;23.50;1.00;;;;;;5013567;28;20205;-54
2022/02/16 03:54:29;;;;;;;2.80;1.83;;;23.60;1.00;;;;;;5017394;28;20192;-54
2022/02/16 03:56:54;;;;;;;2.10;1.50;;;23.50;1.00;;;;;;5018399;28;20831;-53
2022/02/16 03:59:20;;;;;;;2.53;1.60;;;23.60;1.00;;;;;;5017339;28;20251;-54
2022/02/16 04:01:45;;;;;;;2.43;1.53;;;23.50;1.00;;;;;;5017575;28;20173;-54
2022/02/16 04:04:11;;;;;;;2.40;1.50;;;23.50;1.00;;;;;;5000567;28;20186;-53
2022/02/16 04:06:37;;;;;;;2.23;1.70;;;23.50;1.00;;;;;;5018796;28;20194;-54
2022/02/16 04:09:03;;;;;;;2.83;1.93;;;23.50;1.00;;;;;;5018039;28;20187;-54
2022/02/16 04:11:28;;;;;;;3.13;2.00;;;23.50;1.30;;;;;;5017693;28;20179;-54
2022/02/16 04:13:55;;;;;;;2.73;1.70;;;23.50;1.00;;;;;;5016557;28;20175;-54
2022/02/16 04:16:22;;;;;;;2.60;1.50;;;23.50;1.30;;;;;;5017723;28;20591;-54
2022/02/16 04:18:48;;;;;;;2.23;1.53;;;23.70;1.10;;;;;;5018282;28;20957;-54
2022/02/16 04:21:13;;;;;;;2.50;1.83;;;23.50;1.20;;;;;;4999383;28;20418;-54
2022/02/16 04:23:42;;;;;;;2.53;1.80;;;23.50;1.10;;;;;;5017627;28;20171;-54
2022/02/16 04:26:09;;;;;;;2.17;1.93;;;23.50;1.00;;;;;;5017196;28;20175;-54
2022/02/16 04:28:35;;;;;;;3.13;2.10;;;23.50;1.00;;;;;;5017240;28;20427;-54
2022/02/16 04:31:01;;;;;;;2.00;1.50;;;23.50;1.00;;;;;;5016468;28;20774;-53
2022/02/16 04:33:26;;;;;;;3.67;1.87;;;23.50;1.30;;;;;;5016713;28;20168;-54
2022/02/16 04:35:52;;;;;;;1.87;1.50;;;23.50;1.30;;;;;;5017004;28;20640;-53
2022/02/16 04:38:17;;;;;;;4.20;1.80;;;23.50;1.20;;;;;;5016963;28;20194;-54
2022/02/16 04:40:43;;;;;;;2.43;1.67;;;23.50;1.70;;;;;;5016682;28;20199;-54
2022/02/16 04:43:09;;;;;;;2.63;1.80;;;23.50;1.30;;;;;;5017185;28;20187;-54
2022/02/16 04:45:35;;;;;;;2.43;1.63;;;23.50;1.30;;;;;;5017235;28;20278;-54
2022/02/16 04:48:02;;;;;;;2.33;1.67;;;23.50;1.20;;;;;;5017500;28;20178;-54
2022/02/16 04:50:28;;;;;;;3.63;2.27;;;23.50;1.30;;;;;;5017184;28;20175;-54
2022/02/16 04:52:54;;;;;;;2.00;1.80;;;23.50;1.30;;;;;;5017326;28;20817;-54
2022/02/16 04:55:22;;;;;;;3.17;1.33;;;23.40;1.20;;;;;;5017105;28;20211;-54
2022/02/16 04:57:48;;;;;;;2.33;1.67;;;23.50;1.00;;;;;;4999812;28;20422;-54
2022/02/16 05:00:14;;;;;;;3.30;2.10;;;23.50;1.20;;;;;;5016485;28;20417;-54
2022/02/16 05:02:40;;;;;;;3.40;2.10;;;23.50;1.30;;;;;;5017470;28;20179;-54
2022/02/16 05:05:07;;;;;;;2.33;1.50;;;23.50;1.10;;;;;;5016246;28;20414;-54
2022/02/16 05:07:33;;;;;;;6.83;1.73;;;23.50;1.20;;;;;;5017304;28;20179;-54
2022/02/16 05:09:59;;;;;;;3.13;1.73;;;23.50;1.30;;;;;;4998155;28;20449;-54
2022/02/16 05:12:24;;;;;;;4.53;1.50;;;23.50;1.10;;;;;;5017331;28;20171;-54
2022/02/16 05:14:50;;;;;;;4.70;1.90;;;23.30;1.20;;;;;;5016074;28;20662;-54
2022/02/16 05:17:16;;;;;;;1.67;1.33;;;23.50;1.30;;;;;;4998921;28;20590;-54
2022/02/16 05:19:42;;;;;;;2.50;1.60;;;23.30;1.10;;;;;;5016509;28;20178;-54
2022/02/16 05:22:08;;;;;;;2.30;1.50;;;23.50;1.20;;;;;;5016755;28;20174;-54
2022/02/16 05:24:34;;;;;;;2.07;1.57;;;23.50;1.00;;;;;;5016700;28;20433;-54
2022/02/16 05:26:59;;;;;;;3.20;1.80;;;23.50;1.60;;;;;;5016478;28;20183;-54
2022/02/16 05:29:25;;;;;;;5.27;2.30;;;23.50;1.10;;;;;;5016540;28;20183;-54
2022/02/16 05:31:51;;;;;;;2.60;1.77;;;23.50;1.20;;;;;;4997731;28;20321;-54
2022/02/16 05:34:16;;;;;;;4.33;1.47;;;23.70;1.20;;;;;;5016542;28;20195;-54
2022/02/16 05:36:43;;;;;;;2.00;1.70;;;23.50;1.00;;;;;;4998807;28;20179;-54
2022/02/16 05:39:09;;;;;;;2.50;1.90;;;23.50;1.00;;;;;;5016072;28;20175;-54
2022/02/16 05:41:34;;;;;;;2.07;1.80;;;23.50;1.20;;;;;;5015673;28;20421;-54
2022/02/16 05:44:00;;;;;;;4.60;2.00;;;23.50;1.20;;;;;;5015957;28;20688;-54
2022/02/16 05:46:26;;;;;;;1.87;1.60;;;23.50;1.20;;;;;;5015930;28;20175;-54
2022/02/16 05:48:51;;;;;;;2.20;1.47;;;23.50;1.20;;;;;;5016201;28;20202;-54
2022/02/16 05:51:17;;;;;;;3.43;1.50;;;23.50;1.30;;;;;;5015456;28;20212;-54
2022/02/16 05:53:43;;;;;;;4.13;1.87;;;23.50;1.10;;;;;;5015195;28;20171;-54
2022/02/16 05:56:09;;;;;;;2.10;1.40;;;23.40;1.20;;;;;;5015468;28;20218;-54
2022/02/16 05:58:35;;;;;;;4.30;1.67;;;23.50;1.00;;;;;;5015791;28;20425;-54
2022/02/16 06:01:01;;;;;;;1.90;1.70;;;23.50;1.20;;;;;;4997839;28;20787;-54
2022/02/16 06:03:27;;;;;;;2.03;1.70;;;23.50;1.20;;;;;;4997585;28;20233;-54
2022/02/16 06:05:53;;;;;;;4.13;2.10;;;23.40;1.10;;;;;;5015749;28;20418;-54
2022/02/16 06:08:19;;;;;;;6.27;1.87;;;23.50;1.00;;;;;;5015738;28;20584;-54
2022/02/16 06:10:45;;;;;;;2.07;1.67;;;23.30;1.00;;;;;;5014313;28;20224;-54
2022/02/16 06:13:12;;;;;;;2.20;1.70;;;23.50;1.00;;;;;;5015331;28;20512;-54
2022/02/16 06:15:38;;;;;;;3.40;1.63;;;23.50;1.00;;;;;;5014649;28;20305;-54
2022/02/16 06:18:04;;;;;;;3.27;1.87;;;23.50;1.20;;;;;;5014406;28;20604;-54
2022/02/16 06:20:29;;;;;;;2.23;1.70;;;23.50;1.00;;;;;;5014420;28;20414;-54
2022/02/16 06:22:56;;;;;;;2.67;1.77;;;23.50;1.00;;;;;;5013606;28;20191;-54
2022/02/16 06:25:25;;;;;;;3.30;1.60;;;23.50;1.00;;;;;;5015210;28;20626;-54
2022/02/16 06:27:51;;;;;;;2.60;1.67;;;23.40;1.00;;;;;;5014940;28;20422;-54
2022/02/16 06:30:18;;;;;;;3.00;1.67;;;23.50;1.20;;;;;;5014690;28;20460;-54
2022/02/16 06:32:45;;;;;;;2.90;1.70;;;23.50;1.20;;;;;;5014644;28;20478;-54
2022/02/16 06:35:12;;;;;;;2.13;1.50;;;23.50;1.00;;;;;;4997216;28;21014;-54
2022/02/16 06:37:38;;;;;;;1.93;1.70;;;23.50;1.00;;;;;;5014677;28;20410;-54
2022/02/16 06:40:04;;;;;;;1.80;1.40;;;23.40;1.00;;;;;;5013181;28;20963;-54
2022/02/16 06:42:30;;;;;;;2.13;1.80;;;23.40;1.00;;;;;;5014709;28;20429;-54
2022/02/16 06:44:56;;;;;;;3.23;1.70;;;23.40;1.10;;;;;;5014998;28;20438;-53
2022/02/16 06:47:22;;;;;;;3.90;2.00;;;23.40;1.00;;;;;;5014369;28;20681;-54
2022/02/16 06:49:47;;;;;;;3.20;1.80;;;23.50;1.20;;;;;;5014119;28;20263;-54
2022/02/16 06:52:13;;;;;;;2.80;2.07;;;23.40;1.10;;;;;;5014842;28;20183;-54
2022/02/16 06:54:39;;;;;;;5.77;2.50;;;23.40;1.00;;;;;;5014719;28;20208;-54
2022/02/16 06:57:05;;;;;;;4.10;2.30;;;23.40;1.10;;;;;;5015049;28;20269;-54
2022/02/16 06:59:30;;;;;;;4.13;2.00;;;23.40;1.00;;;;;;5014594;28;20174;-54
2022/02/16 07:01:56;;;;;;;2.63;1.90;;;23.50;1.00;;;;;;5014355;28;20175;-54
2022/02/16 07:04:22;;;;;;;2.73;1.70;;;23.40;1.00;;;;;;5014345;28;20474;-54
2022/02/16 07:06:47;;;;;;;5.13;2.47;;;23.40;1.00;;;;;;5009635;28;20222;-57
2022/02/16 07:09:13;;;;;;;6.80;2.28;;;23.50;1.40;;;;;;4990099;28;20463;-55
2022/02/16 07:11:39;;;;;;;10.60;2.10;;;23.60;1.40;;;;;;5011613;28;20178;-55
2022/02/16 07:14:05;;;;;;;6.03;2.23;;;23.50;1.30;;;;;;5013704;28;20541;-55
2022/02/16 07:16:31;;;;;;;3.80;2.03;;;23.50;1.30;;;;;;5013108;28;20247;-55
2022/02/16 07:18:57;;;;;;;9.50;2.10;;;23.40;1.30;;;;;;5013668;28;20171;-55
2022/02/16 07:21:23;;;;;;;9.40;2.30;;;23.50;1.30;;;;;;5012629;28;20472;-57
2022/02/16 07:23:50;;;;;;;8.10;2.40;;;23.50;1.70;;;;;;5002795;28;20650;-56
2022/02/16 07:26:16;;;;;;;5.30;2.10;;;23.70;2.40;;;;;;5014104;28;20943;-55
2022/02/16 07:28:42;;;;;;;8.50;2.13;;;23.80;2.10;;;;;;5017509;28;20549;-55
2022/02/16 07:31:08;;;;;;;9.77;2.30;;;23.90;1.90;;;;;;5017917;28;20170;-55
2022/02/16 07:33:34;;;;;;;2.90;2.10;;;23.90;2.00;;;;;;5018039;28;20991;-55
2022/02/16 07:36:00;;;;;;;5.70;3.10;;;24.00;2.00;;;;;;5018205;28;20653;-56
2022/02/16 07:38:26;;;;;;;8.47;2.70;;;24.00;1.90;;;;;;5018045;28;20194;-55
2022/02/16 07:40:51;;;;;;;13.03;3.47;;;24.10;1.90;;;;;;5016543;28;20433;-54
2022/02/16 07:43:17;;;;;;;6.90;3.30;;;24.10;1.90;;;;;;5018263;28;20787;-55
2022/02/16 07:45:44;;;;;;;6.43;3.00;;;24.10;2.10;;;;;;5018185;28;20206;-55
2022/02/16 07:48:10;;;;;;;6.50;3.23;;;24.10;1.90;;;;;;4999842;28;20502;-55
2022/02/16 07:50:36;;;;;;;17.70;4.30;;;23.90;1.80;;;;;;4998757;28;20421;-55
2022/02/16 07:53:04;;;;;;;7.17;3.90;;;23.90;1.90;;;;;;5000196;28;20901;-55
2022/02/16 07:55:31;;;;;;;9.63;3.53;;;24.00;1.90;;;;;;5017905;28;20457;-55
2022/02/16 07:58:01;;;;;;;10.50;3.80;;;23.90;2.00;;;;;;5017118;28;20426;-55
2022/02/16 08:00:31;;;;;;;11.47;3.80;;;23.90;1.90;;;;;;5016590;28;20444;-55
2022/02/16 08:02:57;;;;;;;8.43;3.30;;;23.90;2.20;;;;;;5017458;28;20797;-56
2022/02/16 08:05:23;;;;;;;14.30;4.30;;;23.90;2.20;;;;;;5017422;28;20429;-55
2022/02/16 08:07:49;;;;;;;10.43;3.40;;;23.90;2.40;;;;;;4999760;28;20991;-55
2022/02/16 08:10:15;;;;;;;7.50;3.73;;;23.80;2.40;;;;;;5017725;28;20449;-58
2022/02/16 08:12:56;;;;;;;13.87;4.00;;;24.00;4.70;;;;;;5017174;28;20187;-54
2022/02/16 08:15:26;;;;;;;15.47;3.83;;;24.20;3.20;;;;;;5018970;28;20206;-57
2022/02/16 08:17:52;;;;;;;12.00;3.53;;;24.20;2.90;;;;;;5018550;28;20476;-59
2022/02/16 08:20:19;;;;;;;14.97;3.90;;;24.20;3.60;;;;;;5017433;28;20406;-56
2022/02/16 08:22:45;;;;;;;10.43;3.87;;;24.30;3.30;;;;;;5017356;28;20966;-57
2022/02/16 08:25:12;;;;;;;11.93;3.90;;;24.30;3.60;;;;;;5016650;28;20437;-57
2022/02/16 08:27:38;;;;;;;9.57;3.93;;;24.20;2.90;;;;;;5017360;28;20453;-55
2022/02/16 08:30:05;;;;;;;19.73;4.37;;;24.30;3.90;;;;;;5016441;28;20433;-57
2022/02/16 08:32:31;;;;;;;19.10;5.17;;;24.30;3.20;;;;;;5016754;28;20655;-57
2022/02/16 08:34:57;;;;;;;17.60;5.20;;;24.40;3.60;;;;;;5016706;28;20519;-54
2022/02/16 08:37:22;;;;;;;14.13;4.20;;;24.40;3.30;;;;;;4999500;28;20450;-58
2022/02/16 08:39:48;;;;;;;15.07;4.20;;;24.60;3.40;;;;;;5016141;28;20178;-57
2022/02/16 08:42:13;;;;;;;10.20;4.27;;;24.50;3.60;;;;;;5016733;28;20263;-56
2022/02/16 08:44:39;;;;;;;15.00;4.03;;;24.60;3.40;;;;;;5017049;28;20229;-56
2022/02/16 08:47:06;;;;;;;9.00;4.13;;;24.60;2.80;;;;;;5018000;28;20175;-58
2022/02/16 08:49:32;;;;;;;15.57;4.17;;;24.50;2.90;;;;;;4999866;28;20187;-58
2022/02/16 08:51:57;;;;;;;12.73;4.20;;;24.50;3.50;;;;;;5014239;28;20522;-54
2022/02/16 08:54:23;;;;;;;18.77;5.00;;;24.40;2.80;;;;;;5016681;28;20556;-56
2022/02/16 08:56:50;;;;;;;7.50;3.73;;;24.50;3.30;;;;;;5016763;28;20659;-53
2022/02/16 08:59:17;;;;;;;13.90;4.40;;;24.50;3.40;;;;;;5016307;28;20530;-53
2022/02/16 09:01:43;;;;;;;13.83;4.50;;;24.50;2.80;;;;;;5016065;28;20179;-54
2022/02/16 09:04:08;;;;;;;11.57;3.93;;;24.50;2.40;;;;;;5011898;28;20434;-57
2022/02/16 09:06:37;;;;;;;18.87;5.23;;;24.60;2.40;;;;;;5016950;28;20445;-57
2022/02/16 09:09:04;;;;;;;12.33;3.80;;;24.60;2.50;;;;;;4999319;28;20182;-55
2022/02/16 09:11:30;;;;;;;14.27;3.93;;;24.60;2.30;;;;;;5014758;28;20433;-57
2022/02/16 09:13:57;;;;;;;8.77;4.23;;;24.60;2.10;;;;;;5016062;28;20472;-55
2022/02/16 09:16:23;;;;;;;12.73;3.60;;;24.60;1.70;;;;;;5016867;28;20426;-57
2022/02/16 09:18:49;;;;;;;11.33;4.27;;;24.60;1.90;;;;;;5017025;28;20418;-56
2022/02/16 09:21:17;;;;;;;17.13;3.90;;;24.60;2.10;;;;;;4999606;28;20424;-56
2022/02/16 09:23:43;;;;;;;16.77;3.60;;;24.50;1.90;;;;;;5016911;28;20429;-55
2022/02/16 09:26:09;;;;;;;10.00;3.77;;;24.60;1.90;;;;;;5017217;28;20427;-55
2022/02/16 09:28:36;;;;;;;9.47;4.10;;;24.30;2.00;;;;;;5015726;28;20221;-56
2022/02/16 09:31:04;;;;;;;16.17;4.10;;;24.50;2.20;;;;;;5016776;28;20766;-55
2022/02/16 09:33:29;;;;;;;14.90;3.93;;;24.40;2.00;;;;;;5015479;28;20426;-56
2022/02/16 09:35:56;;;;;;;17.17;3.80;;;24.40;2.00;;;;;;4999621;28;20488;-56
2022/02/16 09:38:22;;;;;;;11.93;3.70;;;24.30;1.80;;;;;;5015886;28;20803;-56
2022/02/16 09:40:51;;;;;;;6.60;2.90;;;24.10;2.20;;;;;;5016014;28;20511;-56
2022/02/16 09:43:23;;;;;;;16.10;4.70;;;24.20;1.90;;;;;;4998647;28;20477;-56
2022/02/16 09:45:55;;;;;;;7.50;2.90;;;24.20;1.80;;;;;;5016046;28;20785;-55
2022/02/16 09:48:24;;;;;;;8.40;3.80;;;24.20;1.70;;;;;;5016394;28;20406;-56
2022/02/16 09:50:54;;;;;;;9.70;3.03;;;24.20;1.70;;;;;;5015692;28;20429;-55
2022/02/16 09:53:20;;;;;;;11.77;3.93;;;24.20;2.00;;;;;;5015211;28;20739;-56
2022/02/16 09:55:46;;;;;;;11.57;4.17;;;24.20;2.00;;;;;;4998022;28;20476;-56
2022/02/16 09:58:12;;;;;;;9.10;4.03;;;24.20;1.90;;;;;;5016198;28;20242;-56
2022/02/16 10:00:37;;;;;;;7.13;3.53;;;24.20;1.90;;;;;;5014888;28;20646;-56
2022/02/16 10:03:13;;;;;;;9.50;3.40;;;24.20;2.30;;;;;;5016072;28;20805;-56
2022/02/16 10:05:40;;;;;;;8.23;3.30;;;24.10;2.00;;;;;;5015865;28;20183;-56
2022/02/16 10:08:06;;;;;;;5.83;2.53;;;24.20;1.90;;;;;;4997940;28;21097;-56
2022/02/16 10:10:32;;;;;;;5.63;2.83;;;24.10;1.90;;;;;;4997523;28;20501;-56
2022/02/16 10:12:59;;;;;;;7.67;2.53;;;24.20;1.90;;;;;;5015756;28;20422;-56
2022/02/16 10:15:44;;;;;;;7.67;2.87;;;24.10;1.90;;;;;;5014902;28;20462;-55
2022/02/16 10:18:14;;;;;;;5.37;2.67;;;24.10;1.90;;;;;;5015208;28;20434;-56
2022/02/16 10:20:41;;;;;;;5.87;2.70;;;24.10;1.90;;;;;;5015113;28;20410;-56
2022/02/16 10:23:08;;;;;;;4.83;2.40;;;24.10;1.90;;;;;;5015718;28;20424;-55
2022/02/16 10:25:35;;;;;;;5.00;2.30;;;24.00;1.90;;;;;;4998224;28;20968;-56
2022/02/16 10:28:14;;;;;;;4.47;2.17;;;24.00;1.90;;;;;;5015551;28;20437;-56
2022/02/16 10:31:03;;;;;;;6.50;2.80;;;24.00;1.80;;;;;;4997573;28;20453;-56
2022/02/16 10:33:37;;;;;;;8.03;2.87;;;24.00;1.90;;;;;;5016332;28;20425;-55
2022/02/16 10:36:19;;;;;;;4.97;2.50;;;24.00;1.90;;;;;;5014924;28;20496;-56
2022/02/16 10:39:02;;;;;;;6.43;3.10;;;24.00;2.00;;;;;;4997446;28;20418;-56
2022/02/16 10:41:41;;;;;;;4.57;2.40;;;24.00;1.80;;;;;;5015174;28;20423;-56
2022/02/16 10:44:31;;;;;;;24.53;3.37;;;23.90;1.80;;;;;;5015811;28;20445;-59
2022/02/16 10:47:07;;;;;;;5.20;2.80;;;24.00;2.60;;;;;;5015198;28;20414;-59
2022/02/16 10:49:47;;;;;;;8.18;2.88;;;24.20;4.40;;;;;;4997542;28;20432;-59
2022/02/16 10:52:20;;;;;;;8.55;2.60;;;24.20;3.90;;;;;;5015929;28;20430;-57
2022/02/16 10:54:59;;;;;;;10.30;3.37;;;24.20;3.10;;;;;;5015191;28;20199;-59
2022/02/16 10:57:26;;;;;;;9.20;2.80;;;24.30;2.60;;;;;;4996700;28;20465;-58
2022/02/16 10:59:52;;;;;;;5.60;2.47;;;24.40;2.20;;;;;;5013448;28;20443;-58
2022/02/16 11:02:21;;;;;;;9.03;2.20;;;24.40;2.10;;;;;;5014273;28;21139;-58
2022/02/16 11:04:48;;;;;;;20.50;3.13;;;24.40;2.20;;;;;;5015788;28;20169;-58
2022/02/16 11:07:19;;;;;;;5.20;2.63;;;24.30;2.60;;;;;;5015400;28;20418;-58
2022/02/16 11:09:48;;;;;;;12.50;2.23;;;24.20;2.30;;;;;;5014949;28;20857;-58
2022/02/16 11:12:16;;;;;;;4.33;2.40;;;24.30;2.30;;;;;;4997003;28;20819;-58
2022/02/16 11:14:41;;;;;;;3.70;2.30;;;24.30;2.50;;;;;;5015511;28;20476;-58
2022/02/16 11:17:09;;;;;;;9.80;2.97;;;24.20;2.60;;;;;;5013740;28;20422;-60
2022/02/16 11:19:36;;;;;;;7.73;2.07;;;24.20;3.50;;;;;;5014341;28;20202;-60
2022/02/16 11:22:21;;;;;;;3.67;2.10;;;24.50;3.50;;;;;;4996370;28;20422;-58
2022/02/16 11:24:50;;;;;;;5.17;2.50;;;24.60;3.00;;;;;;5015330;28;20418;-59
2022/02/16 11:27:29;;;;;;;14.30;3.00;;;24.60;2.60;;;;;;5013882;28;20427;-59
2022/02/16 11:29:58;;;;;;;13.57;3.00;;;24.40;4.00;;;;;;5014230;28;20430;-56
2022/02/16 11:32:41;;;;;;;10.77;2.92;;;24.40;3.10;;;;;;5015167;28;20423;-57
2022/02/16 11:35:23;;;;;;;10.23;3.20;;;24.50;3.10;;;;;;5014839;28;20215;-57
2022/02/16 11:38:11;;;;;;;5.77;2.93;;;24.60;3.40;;;;;;5014161;28;20418;-58
2022/02/16 11:40:47;;;;;;;12.50;2.93;;;24.70;3.20;;;;;;5013584;28;20469;-59
2022/02/16 11:43:16;;;;;;;4.80;2.33;;;24.60;3.20;;;;;;5014662;28;20417;-56
2022/02/16 11:45:57;;;;;;;6.50;2.20;;;24.70;3.50;;;;;;5015619;28;20446;-55
2022/02/16 11:48:49;;;;;;;5.65;2.60;;;24.70;3.10;;;;;;5015912;28;20415;-57
2022/02/16 11:51:26;;;;;;;14.32;3.20;;;24.80;3.50;;;;;;5014931;28;20411;-58
2022/02/16 11:53:52;;;;;;;10.00;2.90;;;24.70;3.10;;;;;;5016353;28;20214;-55
2022/02/16 11:56:22;;;;;;;9.60;2.57;;;24.70;3.70;;;;;;5015704;28;20497;-57
2022/02/16 11:59:19;;;;;;;4.17;2.23;;;24.80;2.90;;;;;;5015935;28;20421;-58
2022/02/16 12:02:08;;;;;;;3.67;2.00;;;24.70;2.80;;;;;;4998312;28;20461;-56
2022/02/16 12:04:55;;;;;;;10.80;3.03;;;24.70;2.50;;;;;;5012926;28;20501;-55
2022/02/16 12:07:30;;;;;;;13.33;3.03;;;24.60;2.70;;;;;;5007375;28;20425;-55
2022/02/16 12:10:39;;;;;;;7.23;2.90;;;24.50;2.80;;;;;;5008814;28;20405;-55
2022/02/16 12:13:06;;;;;;;4.73;2.47;;;24.40;2.70;;;;;;4969066;28;20434;-55
2022/02/16 12:15:36;;;;;;;13.17;2.10;;;24.40;3.40;;;;;;5003271;28;20463;-54
2022/02/16 12:18:03;;;;;;;11.13;3.07;;;24.40;3.10;;;;;;4979650;28;20804;-61
2022/02/16 12:20:29;;;;;;;3.30;1.80;;;24.30;3.00;;;;;;4997888;28;20474;-55
2022/02/16 12:23:03;;;;;;;3.43;2.47;;;24.30;2.80;;;;;;4981095;28;20419;-55
2022/02/16 12:25:30;;;;;;;3.10;2.23;;;24.30;2.90;;;;;;4980679;28;20517;-55
2022/02/16 12:28:05;;;;;;;4.20;2.07;;;24.30;2.70;;;;;;4999090;28;20422;-55
2022/02/16 12:30:34;;;;;;;3.60;1.97;;;24.30;2.70;;;;;;4998197;28;20414;-55
2022/02/16 12:33:00;;;;;;;3.47;1.80;;;24.30;2.70;;;;;;4981009;28;20419;-55
2022/02/16 12:35:26;;;;;;;6.67;2.30;;;24.30;2.70;;;;;;4998838;28;20664;-55
2022/02/16 12:37:53;;;;;;;6.00;2.83;;;24.20;2.70;;;;;;4998918;28;20415;-55
2022/02/16 12:40:23;;;;;;;3.00;1.90;;;24.30;2.70;;;;;;4997600;28;20745;-55
2022/02/16 12:42:49;;;;;;;3.00;2.10;;;24.00;2.60;;;;;;4980757;28;20407;-55
2022/02/16 12:45:22;;;;;;;3.63;2.17;;;24.20;2.40;;;;;;4998167;28;20441;-55
2022/02/16 12:47:50;;;;;;;3.87;2.30;;;24.20;2.50;;;;;;4998454;28;20175;-55
2022/02/16 12:50:17;;;;;;;5.10;2.50;;;24.20;2.80;;;;;;4980205;28;20431;-54
2022/02/16 12:52:44;;;;;;;2.40;1.70;;;24.20;2.60;;;;;;4998779;28;20415;-54
2022/02/16 12:55:10;;;;;;;3.17;1.90;;;24.20;2.50;;;;;;4998467;28;20458;-54
2022/02/16 12:57:37;;;;;;;2.60;1.90;;;24.20;2.60;;;;;;4998017;28;20415;-54